Historique des mesures à Cassis (13260), France
Quotidien Résumé Fevrier 5, 2017 Unités:  US    Métrique   Métrique/US
« Précédent (Jour)
Suivant (Jour) »
Quotidien Hebdomadaire Mensuel Annuel Période au choix
  Maximum: Minimum: Moyenne:
Température: 32 °F 48.4 °F 51.4 °F
Point de rosée: 32 °F 38.1 °F 44.6 °F
Humidité: Humidity % 67 % 74 %
Vitesse du vent: WindSpeedKMH mph 0.0 mph 7.7 mph
Rafales: WindSpeedGustKMH mph - -
Vent:- - SW
Pression: 0 in 29.5 in -
Précipitations: 187.96 in    
Historical Graphs
 
 
Mesures pour : Fevrier 5, 2017
Heure Temperature Point de rosée Pression Vent Vitesse du vent Rafales Humidité Pluie (par heure) Conditions
32 °F 32 °F 0 in Calm     Humidity % 0 in SoftwareType W/m2
00:10 53.8 °F 44.6 °F 29.7 in Calm     71 % 0 in open2300-1.11 W/m2
01:11 53.8 °F 45.3 °F 29.7 in Calm     73 % 0 in open2300-1.11 W/m2
02:10 52.5 °F 45.5 °F 29.7 in Calm     77 % 12.7 in open2300-1.11 W/m2
03:11 52.7 °F 46.4 °F 29.7 in Calm     79 % 12.7 in open2300-1.11 W/m2
04:10 52.7 °F 46.8 °F 29.6 in Calm   5.8 mph 80 % 0 in open2300-1.11 W/m2
05:11 52.9 °F 46.9 °F 29.6 in Calm   2.6 mph 80 % 0 in open2300-1.11 W/m2
06:10 54.1 °F 48.6 °F 29.5 in ESE 2.6 mph 4.7 mph 81 % 0 in open2300-1.11 W/m2
07:11 54.7 °F 49.6 °F 29.5 in ESE 3.5 mph 4.0 mph 83 % 0 in open2300-1.11 W/m2
08:10 55.2 °F 50.2 °F 29.5 in SE 2.1 mph 4.3 mph 83 % 0 in open2300-1.11 W/m2
09:11 55.9 °F 50.7 °F 29.5 in Calm     83 % 0 in open2300-1.11 W/m2
10:10 57.4 °F 52 °F 29.5 in WNW 4.7 mph 4.7 mph 82 % 0 in open2300-1.11 W/m2
11:11 54.7 °F 49.6 °F 29.5 in NNW 10.8 mph 10.8 mph 83 % 0 in open2300-1.11 W/m2
12:10 52.5 °F 47.8 °F 29.5 in NW 4.3 mph 10.8 mph 84 % 38.1 in open2300-1.11 W/m2
13:11 49.8 °F 44.8 °F 29.5 in NNW 7.2 mph 25.3 mph 83 % 63.5 in open2300-1.11 W/m2
14:10 49.8 °F 44.4 °F 29.5 in North 14.8 mph 14.8 mph 82 % 50.8 in open2300-1.11 W/m2
15:11 50.2 °F 43 °F 29.5 in NNW 9.0 mph 20.9 mph 76 % 0 in open2300-1.11 W/m2
16:11 50.2 °F 43.2 °F 29.5 in NW 21.6 mph 30.9 mph 77 % 0 in open2300-1.11 W/m2
18:11 50.5 °F 41.5 °F 29.5 in NW 26.2 mph 26.2 mph 71 % 0 in open2300-1.11 W/m2
19:10 50.4 °F 40.6 °F 29.5 in NNW 21.6 mph 21.6 mph 69 % 0 in open2300-1.11 W/m2
20:11 50.2 °F 39.9 °F 29.5 in WNW 19.5 mph 19.5 mph 68 % 0 in open2300-1.11 W/m2
21:10 49.8 °F 39.4 °F 29.5 in NW 27.7 mph 27.7 mph 67 % 0 in open2300-1.11 W/m2
22:11 49.3 °F 38.8 °F 29.5 in North 1.4 mph 24.8 mph 67 % 0 in open2300-1.11 W/m2
23:10 48.4 °F 38.1 °F 29.5 in NNE 8.7 mph 10.8 mph 68 % 0 in open2300-1.11 W/m2
Observations météo à CASSIS
WU-History script by Weather Underground - 1 mb